createdAt,value
2019-03-12T00:00:35.267Z,99.90
2019-03-12T00:01:40.319Z,99.90
2019-03-12T00:02:44.607Z,99.90
2019-03-12T00:03:48.927Z,99.90
2019-03-12T00:04:53.246Z,99.90
2019-03-12T00:05:57.548Z,99.90
2019-03-12T00:07:01.885Z,99.90
2019-03-12T00:08:06.444Z,99.90
2019-03-12T00:09:10.803Z,99.90
2019-03-12T00:10:15.189Z,99.90
2019-03-12T00:11:19.539Z,99.90
2019-03-12T00:12:23.877Z,99.90
2019-03-12T00:13:28.218Z,99.90
2019-03-12T00:14:32.541Z,99.90
2019-03-12T00:15:36.956Z,99.90
2019-03-12T00:16:41.372Z,99.90
2019-03-12T00:17:45.750Z,99.90
2019-03-12T00:18:50.120Z,99.90
2019-03-12T00:19:54.431Z,99.90
2019-03-12T00:20:58.834Z,99.90
2019-03-12T00:22:03.530Z,99.90
2019-03-12T00:23:07.916Z,99.90
2019-03-12T00:24:12.216Z,99.90
2019-03-12T00:25:16.568Z,99.90
2019-03-12T00:26:20.850Z,99.90
2019-03-12T00:27:25.225Z,99.90
2019-03-12T00:28:29.513Z,99.90
2019-03-12T00:29:33.858Z,99.90
2019-03-12T00:30:38.186Z,99.90
2019-03-12T00:31:42.646Z,99.90
2019-03-12T00:32:47.075Z,99.90
2019-03-12T00:33:51.402Z,99.90
2019-03-12T00:34:55.717Z,99.90
2019-03-12T00:36:00.053Z,99.90
2019-03-12T00:37:04.362Z,99.90
2019-03-12T00:38:08.663Z,99.90
2019-03-12T00:39:13.037Z,99.90
2019-03-12T00:40:17.369Z,99.90
2019-03-12T00:41:21.697Z,99.90
2019-03-12T00:42:26.091Z,99.90
2019-03-12T00:43:30.378Z,99.90
2019-03-12T00:44:34.743Z,99.90
2019-03-12T00:45:39.160Z,99.90
2019-03-12T00:46:43.457Z,99.90
2019-03-12T00:47:47.822Z,99.90
2019-03-12T00:48:52.135Z,99.90
2019-03-12T00:49:56.458Z,99.90
2019-03-12T00:51:00.858Z,99.90
2019-03-12T00:52:05.307Z,99.90
2019-03-12T00:53:09.666Z,99.90
2019-03-12T00:54:13.947Z,99.90
2019-03-12T00:55:18.259Z,99.90
2019-03-12T00:56:22.622Z,99.90
2019-03-12T00:57:26.962Z,99.90
2019-03-12T00:58:31.265Z,99.90
2019-03-12T00:59:35.570Z,99.90
2019-03-12T01:00:39.909Z,99.90
2019-03-12T01:01:44.256Z,99.90
2019-03-12T01:02:48.586Z,99.90
2019-03-12T01:03:52.944Z,99.90
2019-03-12T01:04:57.254Z,99.90
2019-03-12T01:06:01.606Z,99.90
2019-03-12T01:07:05.979Z,99.90
2019-03-12T01:08:10.285Z,99.90
2019-03-12T01:09:14.654Z,99.90
2019-03-12T01:10:19.094Z,99.90
2019-03-12T01:11:23.598Z,99.90
2019-03-12T01:12:27.941Z,99.90
2019-03-12T01:13:32.472Z,99.90
2019-03-12T01:14:36.849Z,99.90
2019-03-12T01:15:41.247Z,99.90
2019-03-12T01:16:45.586Z,99.90
2019-03-12T01:17:49.984Z,99.90
2019-03-12T01:18:54.344Z,99.90
2019-03-12T01:19:58.706Z,99.90
2019-03-12T01:21:03.137Z,99.90
2019-03-12T01:22:07.641Z,99.90
2019-03-12T01:23:11.955Z,99.90
2019-03-12T01:24:16.249Z,99.90
2019-03-12T01:25:20.644Z,99.90
2019-03-12T01:26:24.995Z,99.90
2019-03-12T01:27:29.365Z,99.90
2019-03-12T01:28:33.689Z,99.90
2019-03-12T01:29:38.001Z,99.90
2019-03-12T01:30:42.291Z,99.90
2019-03-12T01:31:46.616Z,99.90
2019-03-12T01:32:50.940Z,99.90
2019-03-12T01:33:55.234Z,99.90
2019-03-12T01:34:59.536Z,99.90
2019-03-12T01:36:03.981Z,99.90
2019-03-12T01:37:08.488Z,99.90
2019-03-12T01:38:12.861Z,99.90
2019-03-12T01:39:17.183Z,99.90
2019-03-12T01:40:21.501Z,99.90
2019-03-12T01:41:25.787Z,99.90
2019-03-12T01:42:30.122Z,99.90
2019-03-12T01:43:34.425Z,99.90
2019-03-12T01:44:38.836Z,99.90
2019-03-12T01:45:43.250Z,99.90
2019-03-12T01:46:47.626Z,99.90
2019-03-12T01:47:52.025Z,99.90
2019-03-12T01:48:56.410Z,99.90
2019-03-12T01:50:00.740Z,99.90
2019-03-12T01:51:05.149Z,99.90
2019-03-12T01:52:09.633Z,99.90
2019-03-12T01:53:13.999Z,99.90
2019-03-12T01:54:18.353Z,99.90
2019-03-12T01:55:22.761Z,99.90
2019-03-12T01:56:27.058Z,99.90
2019-03-12T01:57:31.384Z,99.90
2019-03-12T01:58:35.695Z,99.90
2019-03-12T01:59:40.083Z,99.90
2019-03-12T02:00:44.481Z,99.90
2019-03-12T02:01:48.796Z,99.90
2019-03-12T02:02:53.178Z,99.90
2019-03-12T02:03:57.571Z,99.90
2019-03-12T02:05:01.873Z,99.90
2019-03-12T02:06:06.334Z,99.90
2019-03-12T02:07:10.607Z,99.90
2019-03-12T02:08:15.030Z,99.90
2019-03-12T02:09:20.041Z,99.90
2019-03-12T02:10:24.464Z,99.90
2019-03-12T02:11:28.757Z,99.90
2019-03-12T02:12:33.126Z,99.90
2019-03-12T02:13:37.443Z,99.90
2019-03-12T02:14:41.786Z,99.90
2019-03-12T02:15:46.223Z,99.90
2019-03-12T02:16:50.606Z,99.90
2019-03-12T02:17:54.915Z,99.90
2019-03-12T02:18:59.237Z,99.90
2019-03-12T02:20:04.332Z,99.90
2019-03-12T02:21:08.788Z,99.90
2019-03-12T02:22:13.180Z,99.90
2019-03-12T02:23:17.546Z,99.90
2019-03-12T02:24:22.035Z,99.90
2019-03-12T02:25:26.393Z,99.90
2019-03-12T02:26:30.769Z,99.90
2019-03-12T02:27:35.081Z,99.90
2019-03-12T02:28:39.494Z,99.90
2019-03-12T02:29:43.854Z,99.90
2019-03-12T02:30:48.263Z,99.90
2019-03-12T02:31:52.617Z,99.90
2019-03-12T02:32:57.034Z,99.90
2019-03-12T02:34:01.392Z,99.90
2019-03-12T02:35:06.198Z,99.90
2019-03-12T02:36:10.553Z,99.90
2019-03-12T02:37:14.919Z,99.90
2019-03-12T02:38:19.359Z,99.90
2019-03-12T02:39:23.769Z,99.90
2019-03-12T02:40:28.148Z,99.90
2019-03-12T02:41:32.448Z,99.90
2019-03-12T02:42:36.897Z,99.90
2019-03-12T02:43:41.374Z,99.90
2019-03-12T02:44:45.719Z,99.90
2019-03-12T02:45:50.102Z,99.90
2019-03-12T02:46:54.483Z,99.90
2019-03-12T02:47:58.845Z,99.90
2019-03-12T02:49:03.206Z,99.90
2019-03-12T02:50:08.887Z,99.90
2019-03-12T02:51:13.197Z,99.90
2019-03-12T02:52:17.545Z,99.90
2019-03-12T02:53:21.913Z,99.90
2019-03-12T02:54:26.318Z,99.90
2019-03-12T02:55:30.671Z,99.90
2019-03-12T02:56:35.065Z,99.90
2019-03-12T02:57:39.662Z,99.90
2019-03-12T02:58:43.985Z,99.90
2019-03-12T02:59:48.348Z,99.90
2019-03-12T03:00:52.663Z,99.90
2019-03-12T03:01:56.974Z,99.90
2019-03-12T03:03:01.403Z,99.90
2019-03-12T03:04:05.712Z,99.90
2019-03-12T03:05:10.127Z,99.90
2019-03-12T03:06:19.449Z,99.90
2019-03-12T03:07:42.852Z,99.90
2019-03-12T03:08:47.164Z,99.90
2019-03-12T03:09:51.550Z,99.90
2019-03-12T03:10:55.856Z,99.90
2019-03-12T03:12:00.360Z,99.90
2019-03-12T03:13:05.082Z,99.90
2019-03-12T03:14:29.339Z,99.90
2019-03-12T03:15:37.970Z,99.90
2019-03-12T03:16:42.301Z,99.90
2019-03-12T03:17:46.608Z,99.90
2019-03-12T03:18:50.941Z,99.90
2019-03-12T03:19:55.253Z,99.90
2019-03-12T03:20:59.594Z,99.90
2019-03-12T03:22:03.896Z,99.90
2019-03-12T03:23:08.198Z,99.90
2019-03-12T03:24:12.520Z,99.90
2019-03-12T03:25:16.995Z,99.90
2019-03-12T03:26:21.312Z,99.90
2019-03-12T03:28:20.371Z,99.90
2019-03-12T03:29:24.752Z,99.90
2019-03-12T03:30:29.205Z,99.90
2019-03-12T03:31:33.508Z,99.90
2019-03-12T03:32:37.813Z,99.90
2019-03-12T03:33:42.147Z,99.90
2019-03-12T03:34:46.486Z,99.90
2019-03-12T03:35:50.837Z,99.90
2019-03-12T03:36:55.256Z,99.90
2019-03-12T03:37:59.682Z,99.90
2019-03-12T03:39:04.695Z,99.90
2019-03-12T03:40:10.897Z,99.90
2019-03-12T03:41:15.292Z,99.90
2019-03-12T03:42:19.908Z,99.90
2019-03-12T03:43:24.337Z,99.90
2019-03-12T03:44:28.782Z,99.90
2019-03-12T03:45:33.152Z,99.90
2019-03-12T03:46:37.627Z,99.90
2019-03-12T03:47:41.938Z,99.90
2019-03-12T03:48:46.286Z,99.90
2019-03-12T03:49:50.737Z,99.90
2019-03-12T03:50:55.203Z,99.90
2019-03-12T03:51:59.554Z,99.90
2019-03-12T03:53:04.032Z,99.90
2019-03-12T03:54:08.585Z,99.90
2019-03-12T03:55:14.592Z,99.90
2019-03-12T03:56:19.083Z,99.90
2019-03-12T03:57:23.411Z,99.90
2019-03-12T03:58:27.807Z,99.90
2019-03-12T03:59:32.189Z,99.90
2019-03-12T04:00:36.541Z,99.90
2019-03-12T04:01:40.948Z,99.90
2019-03-12T04:02:45.425Z,99.90
2019-03-12T04:03:49.759Z,99.90
2019-03-12T04:04:54.317Z,99.90
2019-03-12T04:05:58.693Z,99.90
2019-03-12T04:07:03.085Z,99.90
2019-03-12T04:08:07.475Z,99.90
2019-03-12T04:09:12.022Z,99.90
2019-03-12T04:10:16.589Z,99.90
2019-03-12T04:11:20.897Z,99.90
2019-03-12T04:12:25.254Z,99.90
2019-03-12T04:13:29.638Z,99.90
2019-03-12T04:14:34.070Z,99.90
2019-03-12T04:15:38.389Z,99.90
2019-03-12T04:16:42.705Z,99.90
2019-03-12T04:17:47.230Z,99.90
2019-03-12T04:18:51.685Z,99.90
2019-03-12T04:19:56.172Z,99.90
2019-03-12T04:21:00.670Z,99.90
2019-03-12T04:22:04.970Z,99.90
2019-03-12T04:23:09.306Z,99.90
2019-03-12T04:24:13.667Z,99.90
2019-03-12T04:25:18.033Z,99.90
2019-03-12T04:26:22.447Z,99.90
2019-03-12T04:27:26.857Z,99.90
2019-03-12T04:28:31.197Z,99.90
2019-03-12T04:29:35.527Z,99.90
2019-03-12T04:30:39.919Z,99.90
2019-03-12T04:31:44.259Z,99.90
2019-03-12T04:32:48.647Z,99.90
2019-03-12T04:34:20.117Z,99.90
2019-03-12T04:35:24.444Z,99.90
2019-03-12T04:36:28.756Z,99.90
2019-03-12T04:37:33.066Z,99.90
2019-03-12T04:38:37.504Z,99.90
2019-03-12T04:39:41.880Z,99.90
2019-03-12T04:40:46.184Z,99.90
2019-03-12T04:41:50.723Z,99.90
2019-03-12T04:42:55.035Z,99.90
2019-03-12T04:43:59.376Z,99.90
2019-03-12T04:45:04.590Z,99.90
2019-03-12T04:46:08.903Z,99.90
2019-03-12T04:47:13.217Z,99.90
2019-03-12T04:48:17.596Z,99.90
2019-03-12T04:49:21.920Z,99.90
2019-03-12T04:50:26.231Z,99.90
2019-03-12T04:51:30.660Z,99.90
2019-03-12T04:52:35.072Z,99.90
2019-03-12T04:53:39.396Z,99.90
2019-03-12T04:54:43.728Z,99.90
2019-03-12T04:55:48.053Z,99.90
2019-03-12T04:56:52.389Z,99.90
2019-03-12T04:57:56.686Z,99.90
2019-03-12T04:59:01.060Z,99.90
2019-03-12T05:00:06.625Z,99.90
2019-03-12T05:01:10.944Z,99.90
2019-03-12T05:02:15.269Z,99.90
2019-03-12T05:03:19.659Z,99.90
2019-03-12T05:04:23.966Z,99.90
2019-03-12T05:05:28.277Z,99.90
2019-03-12T05:06:32.687Z,99.90
2019-03-12T05:07:37.097Z,99.90
2019-03-12T05:08:41.522Z,99.90
2019-03-12T05:09:45.829Z,99.90
2019-03-12T05:10:50.181Z,99.90
2019-03-12T05:11:54.497Z,99.90
2019-03-12T05:12:58.917Z,99.90
2019-03-12T05:14:25.875Z,99.90
2019-03-12T05:15:30.197Z,99.90
2019-03-12T05:16:34.567Z,99.90
2019-03-12T05:17:38.897Z,99.90
2019-03-12T05:18:43.224Z,99.90
2019-03-12T05:19:47.662Z,99.90
2019-03-12T05:20:51.966Z,99.90
2019-03-12T05:21:56.376Z,99.90
2019-03-12T05:23:00.716Z,99.90
2019-03-12T05:24:05.067Z,99.90
2019-03-12T05:25:10.555Z,99.90
2019-03-12T05:26:14.911Z,99.90
2019-03-12T05:27:19.376Z,99.90
2019-03-12T05:28:23.705Z,99.90
2019-03-12T05:29:28.090Z,99.90
2019-03-12T05:30:32.525Z,99.90
2019-03-12T05:31:36.909Z,99.90
2019-03-12T05:32:41.349Z,99.90
2019-03-12T05:33:45.753Z,99.90
2019-03-12T05:34:50.242Z,99.90
2019-03-12T05:35:54.576Z,99.90
2019-03-12T05:36:58.994Z,99.90
2019-03-12T05:38:03.386Z,99.90
2019-03-12T05:39:07.934Z,99.90
2019-03-12T05:40:13.061Z,99.90
2019-03-12T05:41:17.506Z,99.90
2019-03-12T05:42:21.884Z,99.90
2019-03-12T05:43:26.241Z,99.90
2019-03-12T05:44:30.652Z,99.90
2019-03-12T05:45:35.120Z,99.90
2019-03-12T05:46:39.509Z,99.90
2019-03-12T05:47:43.963Z,99.90
2019-03-12T05:48:48.391Z,99.90
2019-03-12T05:49:52.812Z,99.90
2019-03-12T05:50:57.189Z,99.90
2019-03-12T05:52:01.652Z,99.90
2019-03-12T05:53:15.359Z,99.90
2019-03-12T05:54:19.712Z,99.90
2019-03-12T05:55:24.083Z,99.90
2019-03-12T05:56:28.503Z,99.90
2019-03-12T05:57:32.921Z,99.90
2019-03-12T05:58:37.284Z,99.90
2019-03-12T05:59:41.856Z,99.90
2019-03-12T06:00:46.197Z,99.90
2019-03-12T06:01:50.694Z,99.90
2019-03-12T06:02:55.379Z,99.90
2019-03-12T06:03:59.981Z,99.90
2019-03-12T06:05:04.821Z,99.90
2019-03-12T06:06:09.254Z,99.90
2019-03-12T06:07:13.637Z,99.90
2019-03-12T06:08:18.053Z,99.90
2019-03-12T06:09:30.322Z,99.90
2019-03-12T06:10:28.547Z,99.90
2019-03-12T06:11:33.020Z,99.90
2019-03-12T06:12:37.340Z,99.90
2019-03-12T06:13:43.526Z,99.90
2019-03-12T06:14:48.021Z,99.90
2019-03-12T06:15:53.306Z,99.90
2019-03-12T06:16:57.808Z,99.90
2019-03-12T06:18:02.173Z,99.90
2019-03-12T06:19:06.663Z,99.90
2019-03-12T06:20:11.260Z,99.90
2019-03-12T06:21:15.641Z,99.90
2019-03-12T06:22:20.203Z,99.90
2019-03-12T06:23:24.827Z,99.90
2019-03-12T06:24:29.327Z,99.90
2019-03-12T06:25:33.736Z,99.90
2019-03-12T06:26:38.187Z,99.90
2019-03-12T06:27:42.905Z,99.90
2019-03-12T06:28:47.401Z,99.90
2019-03-12T06:29:51.820Z,99.90
2019-03-12T06:31:09.290Z,99.90
2019-03-12T06:32:41.654Z,99.90
2019-03-12T06:33:52.944Z,99.90
2019-03-12T06:35:16.836Z,99.90
2019-03-12T06:36:39.029Z,99.90
2019-03-12T06:37:56.812Z,99.90
2019-03-12T06:39:14.034Z,99.90
2019-03-12T06:40:32.698Z,99.90
2019-03-12T06:41:50.216Z,99.90
2019-03-12T06:43:16.482Z,99.90
2019-03-12T06:44:32.717Z,99.90
2019-03-12T06:46:08.671Z,99.90
2019-03-12T06:47:46.453Z,99.90
2019-03-12T06:49:00.965Z,99.90
2019-03-12T06:50:26.155Z,99.90
2019-03-12T06:51:48.598Z,99.90
2019-03-12T06:53:18.297Z,99.90
2019-03-12T06:54:40.453Z,99.90
2019-03-12T06:56:03.820Z,99.90
2019-03-12T06:57:26.003Z,99.90
2019-03-12T06:59:04.883Z,99.90
2019-03-12T07:00:35.015Z,99.90
2019-03-12T07:02:01.087Z,99.90
2019-03-12T07:03:33.672Z,99.90
2019-03-12T07:04:52.947Z,99.90
2019-03-12T07:06:04.234Z,99.90
2019-03-12T07:07:36.873Z,99.90
2019-03-12T07:09:00.418Z,99.80
2019-03-12T07:10:23.787Z,99.80
2019-03-12T07:11:36.026Z,99.70
2019-03-12T07:12:50.777Z,99.40
2019-03-12T07:14:14.206Z,99.40
2019-03-12T07:15:28.043Z,99.50
2019-03-12T07:16:42.686Z,99.30
2019-03-12T07:18:12.035Z,99.40
2019-03-12T07:19:35.562Z,99.40
2019-03-12T07:20:57.372Z,99.20
2019-03-12T07:22:20.911Z,99.00
2019-03-12T07:23:34.156Z,99.00
2019-03-12T07:25:05.033Z,99.10
2019-03-12T07:26:18.932Z,98.70
2019-03-12T07:27:41.130Z,98.30
2019-03-12T07:28:55.565Z,98.20
2019-03-12T07:30:15.948Z,97.70
2019-03-12T07:31:54.643Z,97.90
2019-03-12T07:33:05.533Z,97.70
2019-03-12T07:34:18.218Z,97.20
2019-03-12T07:35:50.669Z,96.80
2019-03-12T07:37:07.949Z,96.50
2019-03-12T07:38:20.803Z,96.10
2019-03-12T07:39:31.584Z,96.10
2019-03-12T07:41:01.470Z,95.90
2019-03-12T07:42:16.154Z,95.30
2019-03-12T07:43:45.408Z,95.40
2019-03-12T07:45:14.729Z,95.70
2019-03-12T07:46:31.218Z,95.50
2019-03-12T07:47:51.888Z,95.40
2019-03-12T07:49:19.971Z,95.20
2019-03-12T07:50:43.480Z,94.90
2019-03-12T07:52:10.109Z,94.70
2019-03-12T07:53:21.596Z,94.60
2019-03-12T07:54:33.724Z,94.50
2019-03-12T07:56:02.429Z,94.10
2019-03-12T07:57:14.036Z,94.00
2019-03-12T07:58:36.287Z,93.70
2019-03-12T07:59:46.036Z,93.10
2019-03-12T08:01:06.124Z,93.30
2019-03-12T08:02:28.448Z,92.90
2019-03-12T08:03:47.284Z,92.40
2019-03-12T08:05:02.268Z,92.30
2019-03-12T08:06:17.482Z,92.10
2019-03-12T08:07:28.396Z,92.20
2019-03-12T08:09:04.088Z,92.20
2019-03-12T08:10:17.934Z,91.90
2019-03-12T08:11:30.269Z,92.20
2019-03-12T08:12:53.816Z,91.80
2019-03-12T08:14:12.038Z,91.70
2019-03-12T08:15:34.559Z,90.50
2019-03-12T08:16:58.112Z,90.40
2019-03-12T08:18:20.343Z,90.70
2019-03-12T08:19:48.151Z,90.50
2019-03-12T08:21:21.453Z,90.40
2019-03-12T08:22:33.545Z,90.30
2019-03-12T08:23:51.713Z,90.30
2019-03-12T08:25:18.107Z,89.10
2019-03-12T08:26:45.832Z,88.50
2019-03-12T08:28:15.409Z,87.90
2019-03-12T08:29:27.218Z,88.20
2019-03-12T08:30:51.554Z,88.20
2019-03-12T08:32:04.278Z,88.40
2019-03-12T08:33:20.389Z,87.60
2019-03-12T08:34:42.889Z,88.10
2019-03-12T08:36:06.820Z,87.00
2019-03-12T08:37:21.625Z,87.40
2019-03-12T08:38:55.291Z,88.00
2019-03-12T08:40:37.406Z,86.80
2019-03-12T08:42:03.187Z,87.00
2019-03-12T08:43:13.724Z,85.80
2019-03-12T08:44:37.398Z,86.20
2019-03-12T08:46:10.350Z,85.60
2019-03-12T08:47:36.027Z,85.60
2019-03-12T08:48:59.873Z,84.40
2019-03-12T08:50:19.228Z,84.30
2019-03-12T08:51:41.577Z,83.80
2019-03-12T08:52:54.784Z,84.20
2019-03-12T08:54:21.323Z,83.20
2019-03-12T08:55:47.993Z,83.00
2019-03-12T08:57:02.587Z,81.30
2019-03-12T08:58:24.924Z,79.90
2019-03-12T08:59:38.539Z,79.00
2019-03-12T09:00:54.943Z,79.20
2019-03-12T09:02:17.197Z,79.70
2019-03-12T09:03:45.038Z,78.70
2019-03-12T09:05:24.241Z,78.60
2019-03-12T09:06:43.072Z,77.20
2019-03-12T09:08:03.958Z,77.10
2019-03-12T09:09:34.097Z,77.70
2019-03-12T09:11:00.700Z,78.30
2019-03-12T09:12:18.240Z,77.10
2019-03-12T09:13:39.364Z,76.10
2019-03-12T09:15:01.941Z,75.10
2019-03-12T09:16:22.869Z,75.70
2019-03-12T09:17:46.393Z,75.90
2019-03-12T09:19:05.906Z,76.00
2019-03-12T09:20:31.937Z,75.70
2019-03-12T09:21:44.911Z,75.30
2019-03-12T09:23:14.327Z,75.60
2019-03-12T09:24:26.934Z,75.00
2019-03-12T09:25:49.611Z,75.40
2019-03-12T09:27:00.777Z,74.60
2019-03-12T09:28:14.975Z,74.90
2019-03-12T09:29:35.159Z,74.50
2019-03-12T09:30:59.125Z,75.00
2019-03-12T09:32:21.965Z,75.20
2019-03-12T09:33:34.923Z,76.20
2019-03-12T09:34:55.247Z,76.70
2019-03-12T09:36:25.157Z,77.50
2019-03-12T09:37:37.286Z,78.00
2019-03-12T09:38:56.789Z,75.60
2019-03-12T09:40:22.392Z,75.80
2019-03-12T09:41:55.243Z,75.80
2019-03-12T09:43:12.002Z,75.90
2019-03-12T09:44:44.466Z,75.60
2019-03-12T09:46:14.344Z,75.00
2019-03-12T09:47:43.989Z,75.50
2019-03-12T09:49:06.279Z,75.80
2019-03-12T09:50:19.829Z,74.70
2019-03-12T09:51:41.898Z,74.90
2019-03-12T09:52:59.063Z,75.50
2019-03-12T09:54:13.678Z,74.50
2019-03-12T09:55:33.203Z,74.10
2019-03-12T09:56:47.479Z,74.50
2019-03-12T09:58:17.930Z,75.00
2019-03-12T09:59:44.876Z,75.70
2019-03-12T10:01:08.680Z,76.40
2019-03-12T10:02:24.269Z,78.60
2019-03-12T10:03:34.975Z,78.50
2019-03-12T10:04:53.472Z,78.10
2019-03-12T10:06:15.967Z,78.00
2019-03-12T10:07:36.411Z,77.30
2019-03-12T10:08:58.534Z,76.90
2019-03-12T10:10:14.271Z,77.60
2019-03-12T10:11:37.792Z,78.30
2019-03-12T10:12:59.912Z,78.40
2019-03-12T10:14:13.931Z,78.80
2019-03-12T10:15:27.153Z,77.80
2019-03-12T10:16:57.971Z,76.40
2019-03-12T10:18:26.053Z,76.10
2019-03-12T10:19:52.591Z,76.30
2019-03-12T10:21:02.242Z,76.10
2019-03-12T10:22:13.488Z,75.80
2019-03-12T10:23:49.416Z,76.30
2019-03-12T10:25:12.060Z,76.70
2019-03-12T10:26:34.647Z,76.20
2019-03-12T10:27:51.620Z,76.30
2019-03-12T10:29:19.870Z,76.10
2019-03-12T10:30:55.722Z,75.50
2019-03-12T10:32:11.084Z,76.40
2019-03-12T10:33:32.928Z,76.50
2019-03-12T10:34:52.513Z,76.30
2019-03-12T10:36:05.055Z,76.70
2019-03-12T10:37:37.872Z,77.00
2019-03-12T10:39:43.845Z,77.30
2019-03-12T10:41:04.705Z,78.80
2019-03-12T10:42:32.510Z,78.90
2019-03-12T10:43:41.580Z,80.10
2019-03-12T10:44:52.722Z,80.70
2019-03-12T10:46:13.936Z,81.10
2019-03-12T10:47:21.128Z,80.70
2019-03-12T10:48:26.012Z,81.10
2019-03-12T10:49:37.350Z,79.80
2019-03-12T10:50:36.660Z,78.70
2019-03-12T10:51:41.403Z,78.40
2019-03-12T10:52:45.900Z,78.10
2019-03-12T10:53:50.415Z,79.00
2019-03-12T10:54:54.890Z,79.80
2019-03-12T10:55:59.288Z,78.60
2019-03-12T10:57:03.732Z,79.30
2019-03-12T10:58:08.107Z,78.90
2019-03-12T10:59:12.642Z,77.50
2019-03-12T11:00:17.484Z,77.00
2019-03-12T11:01:21.945Z,75.60
2019-03-12T11:02:26.600Z,74.80
2019-03-12T11:03:31.065Z,74.30
2019-03-12T11:04:35.772Z,74.00
2019-03-12T11:05:45.816Z,75.30
2019-03-12T11:06:46.461Z,75.80
2019-03-12T11:07:51.181Z,76.30
2019-03-12T11:08:56.404Z,77.40
2019-03-12T11:10:00.907Z,77.80
2019-03-12T11:11:05.501Z,79.50
2019-03-12T11:12:10.013Z,80.50
2019-03-12T11:13:14.976Z,81.10
2019-03-12T11:14:19.589Z,83.90
2019-03-12T11:15:24.096Z,84.60
2019-03-12T11:16:28.604Z,85.10
2019-03-12T11:17:33.103Z,85.20
2019-03-12T11:18:37.516Z,86.20
2019-03-12T11:19:41.866Z,88.20
2019-03-12T11:20:46.327Z,88.60
2019-03-12T11:21:50.883Z,89.50
2019-03-12T11:22:55.278Z,90.40
2019-03-12T11:23:59.696Z,90.70
2019-03-12T11:25:04.386Z,90.70
2019-03-12T11:26:08.987Z,90.30
2019-03-12T11:27:13.692Z,91.20
2019-03-12T11:28:18.080Z,90.90
2019-03-12T11:29:22.451Z,91.50
2019-03-12T11:30:26.874Z,92.90
2019-03-12T11:31:31.205Z,92.70
2019-03-12T11:32:35.532Z,94.10
2019-03-12T11:33:39.889Z,95.10
2019-03-12T11:34:44.420Z,94.20
2019-03-12T11:35:48.853Z,95.00
2019-03-12T11:36:53.333Z,94.80
2019-03-12T11:37:57.775Z,95.00
2019-03-12T11:39:02.233Z,96.30
2019-03-12T11:40:09.492Z,97.40
2019-03-12T11:41:13.873Z,97.40
2019-03-12T11:42:18.211Z,97.50
2019-03-12T11:43:22.596Z,97.10
2019-03-12T11:44:26.969Z,97.00
2019-03-12T11:45:36.662Z,96.40
2019-03-12T11:46:44.067Z,95.70
2019-03-12T11:47:43.802Z,95.80
2019-03-12T11:48:48.510Z,95.90
2019-03-12T11:49:52.942Z,95.60
2019-03-12T11:50:57.260Z,96.10
2019-03-12T11:52:01.752Z,95.70
2019-03-12T11:53:06.455Z,95.10
2019-03-12T11:54:10.983Z,95.10
2019-03-12T11:55:16.135Z,95.10
2019-03-12T11:56:20.602Z,94.70
2019-03-12T11:57:24.985Z,94.40
2019-03-12T11:58:29.357Z,94.10
2019-03-12T11:59:33.773Z,93.70
2019-03-12T12:00:44.789Z,93.60
2019-03-12T12:01:49.199Z,92.20
2019-03-12T12:02:59.873Z,92.10
2019-03-12T12:03:59.747Z,91.80
2019-03-12T12:05:04.333Z,91.90
2019-03-12T12:06:08.657Z,91.20
2019-03-12T12:07:13.041Z,90.80
2019-03-12T12:08:17.694Z,91.40
2019-03-12T12:09:22.162Z,91.10
2019-03-12T12:10:26.800Z,91.10
2019-03-12T12:11:31.163Z,91.10
2019-03-12T12:12:35.505Z,90.50
2019-03-12T12:13:39.987Z,89.90
2019-03-12T12:14:44.311Z,88.80
2019-03-12T12:15:48.625Z,88.00
2019-03-12T12:16:52.974Z,88.20
2019-03-12T12:17:57.283Z,87.50
2019-03-12T12:19:01.645Z,87.70
2019-03-12T12:20:06.647Z,86.80
2019-03-12T12:21:11.068Z,85.50
2019-03-12T12:22:15.415Z,85.20
2019-03-12T12:23:19.826Z,85.20
2019-03-12T12:24:26.654Z,86.20
2019-03-12T12:25:30.474Z,85.80
2019-03-12T12:26:34.846Z,84.60
2019-03-12T12:27:39.244Z,84.10
2019-03-12T12:28:43.584Z,84.80
2019-03-12T12:29:48.096Z,84.50
2019-03-12T12:30:52.545Z,84.40
2019-03-12T12:31:56.904Z,85.00
2019-03-12T12:33:01.346Z,83.00
2019-03-12T12:34:05.855Z,84.00
2019-03-12T12:35:10.298Z,84.70
2019-03-12T12:36:14.678Z,84.30
2019-03-12T12:37:19.030Z,83.60
2019-03-12T12:38:23.435Z,83.60
2019-03-12T12:39:27.896Z,83.20
2019-03-12T12:40:32.325Z,83.30
2019-03-12T12:41:36.772Z,82.80
2019-03-12T12:42:41.190Z,82.50
2019-03-12T12:43:45.512Z,82.40
2019-03-12T12:44:50.010Z,81.60
2019-03-12T12:45:54.506Z,81.50
2019-03-12T12:46:58.896Z,82.00
2019-03-12T12:48:03.317Z,82.00
2019-03-12T12:49:07.751Z,81.60
2019-03-12T12:50:12.554Z,81.70
2019-03-12T12:51:17.079Z,80.00
2019-03-12T12:52:21.496Z,80.10
2019-03-12T12:53:25.915Z,79.30
2019-03-12T12:54:30.361Z,79.20
2019-03-12T12:55:34.769Z,79.80
2019-03-12T12:56:39.178Z,80.50
2019-03-12T12:57:43.681Z,80.00
2019-03-12T12:58:48.124Z,77.10
2019-03-12T12:59:52.667Z,78.40
2019-03-12T13:00:57.027Z,78.70
2019-03-12T13:02:01.547Z,78.60
2019-03-12T13:03:06.096Z,78.60
2019-03-12T13:04:10.607Z,80.00
2019-03-12T13:05:15.965Z,80.00
2019-03-12T13:06:20.474Z,80.00
2019-03-12T13:07:24.904Z,80.30
2019-03-12T13:08:29.253Z,80.40
2019-03-12T13:09:33.723Z,80.90
2019-03-12T13:10:38.151Z,80.80
2019-03-12T13:11:42.610Z,79.30
2019-03-12T13:12:46.995Z,79.30
2019-03-12T13:13:51.329Z,80.10
2019-03-12T13:14:55.769Z,80.30
2019-03-12T13:16:00.115Z,80.30
2019-03-12T13:17:04.477Z,81.20
2019-03-12T13:18:08.864Z,80.30
2019-03-12T13:19:13.310Z,80.00
2019-03-12T13:20:18.035Z,80.50
2019-03-12T13:21:22.431Z,80.90
2019-03-12T13:22:26.885Z,79.50
2019-03-12T13:23:31.369Z,79.10
2019-03-12T13:24:35.751Z,79.70
2019-03-12T13:25:40.486Z,78.60
2019-03-12T13:26:44.878Z,78.50
2019-03-12T13:27:49.453Z,79.00
2019-03-12T13:28:53.852Z,79.30
2019-03-12T13:29:58.343Z,78.80
2019-03-12T13:31:02.799Z,77.80
2019-03-12T13:32:13.384Z,75.90
2019-03-12T13:33:13.422Z,76.00
2019-03-12T13:34:17.851Z,75.90
2019-03-12T13:35:22.944Z,75.80
2019-03-12T13:36:27.393Z,76.10
2019-03-12T13:37:31.782Z,76.40
2019-03-12T13:38:45.451Z,76.30
2019-03-12T13:39:42.647Z,75.80
2019-03-12T13:40:47.229Z,76.30
2019-03-12T13:41:51.641Z,75.80
2019-03-12T13:42:56.365Z,75.40
2019-03-12T13:44:00.673Z,74.90
2019-03-12T13:45:05.774Z,74.70
2019-03-12T13:46:10.162Z,75.50
2019-03-12T13:47:14.691Z,75.10
2019-03-12T13:48:22.376Z,74.40
2019-03-12T13:49:27.001Z,74.40
2019-03-12T13:50:31.841Z,75.00
2019-03-12T13:51:36.353Z,74.90
2019-03-12T13:52:40.944Z,74.20
2019-03-12T13:53:45.406Z,74.00
2019-03-12T13:54:49.886Z,74.20
2019-03-12T13:55:54.264Z,74.00
2019-03-12T13:56:59.000Z,73.80
2019-03-12T13:58:03.574Z,74.10
2019-03-12T13:59:07.942Z,73.90
2019-03-12T14:00:17.477Z,73.50
2019-03-12T14:01:22.068Z,73.20
2019-03-12T14:02:26.557Z,73.30
2019-03-12T14:03:30.990Z,73.20
2019-03-12T14:04:35.305Z,73.20
2019-03-12T14:05:39.846Z,73.80
2019-03-12T14:06:44.236Z,73.40
2019-03-12T14:07:49.025Z,73.30
2019-03-12T14:08:53.753Z,73.20
2019-03-12T14:09:58.050Z,72.90
2019-03-12T14:11:02.550Z,73.00
2019-03-12T14:12:07.019Z,72.80
2019-03-12T14:13:11.787Z,72.50
2019-03-12T14:14:16.360Z,72.10
2019-03-12T14:15:23.933Z,72.20
2019-03-12T14:16:28.362Z,72.50
2019-03-12T14:17:32.747Z,72.20
2019-03-12T14:18:37.245Z,71.90
2019-03-12T14:19:41.732Z,73.10
2019-03-12T14:20:48.304Z,72.70
2019-03-12T14:21:52.707Z,72.30
2019-03-12T14:22:57.178Z,72.20
2019-03-12T14:24:03.020Z,73.10
2019-03-12T14:25:07.880Z,73.10
2019-03-12T14:26:13.207Z,72.80
2019-03-12T14:27:17.627Z,72.80
2019-03-12T14:28:22.004Z,72.80
2019-03-12T14:29:26.377Z,73.30
2019-03-12T14:30:30.801Z,73.70
2019-03-12T14:31:35.226Z,73.60
2019-03-12T14:32:39.821Z,73.70
2019-03-12T14:33:44.408Z,74.00
2019-03-12T14:34:48.801Z,73.70
2019-03-12T14:35:53.273Z,73.60
2019-03-12T14:36:57.596Z,72.70
2019-03-12T14:38:01.981Z,73.00
2019-03-12T14:39:07.174Z,73.50
2019-03-12T14:40:11.590Z,73.10
2019-03-12T14:41:16.064Z,73.00
2019-03-12T14:42:20.376Z,73.30
2019-03-12T14:43:24.866Z,73.60
2019-03-12T14:44:29.368Z,73.60
2019-03-12T14:45:34.661Z,72.90
2019-03-12T14:46:39.058Z,73.50
2019-03-12T14:47:43.496Z,72.70